sensor_id;sensor_type;location;lat;lon;timestamp;P1;durP1;ratioP1;P2;durP2;ratioP2
8895;SDS011;4484;48.928;10.066;2024-01-11T00:01:45;40.93;;;21.93;;
8895;SDS011;4484;48.928;10.066;2024-01-11T00:04:13;42.47;;;23.67;;
8895;SDS011;4484;48.928;10.066;2024-01-11T00:06:43;43.90;;;23.00;;
8895;SDS011;4484;48.928;10.066;2024-01-11T00:09:11;44.30;;;22.80;;
8895;SDS011;4484;48.928;10.066;2024-01-11T00:11:38;38.13;;;20.93;;
8895;SDS011;4484;48.928;10.066;2024-01-11T00:14:05;40.73;;;21.20;;
8895;SDS011;4484;48.928;10.066;2024-01-11T00:16:32;32.17;;;17.73;;
8895;SDS011;4484;48.928;10.066;2024-01-11T00:18:59;32.17;;;19.17;;
8895;SDS011;4484;48.928;10.066;2024-01-11T00:21:26;39.97;;;21.33;;
8895;SDS011;4484;48.928;10.066;2024-01-11T00:23:53;33.67;;;17.60;;
8895;SDS011;4484;48.928;10.066;2024-01-11T00:26:20;36.53;;;18.53;;
8895;SDS011;4484;48.928;10.066;2024-01-11T00:28:47;38.17;;;21.47;;
8895;SDS011;4484;48.928;10.066;2024-01-11T00:31:14;39.53;;;20.10;;
8895;SDS011;4484;48.928;10.066;2024-01-11T00:33:41;39.53;;;21.93;;
8895;SDS011;4484;48.928;10.066;2024-01-11T00:36:08;41.30;;;23.43;;
8895;SDS011;4484;48.928;10.066;2024-01-11T00:38:34;37.20;;;19.93;;
8895;SDS011;4484;48.928;10.066;2024-01-11T00:41:01;40.10;;;21.47;;
8895;SDS011;4484;48.928;10.066;2024-01-11T00:43:29;40.17;;;21.37;;
8895;SDS011;4484;48.928;10.066;2024-01-11T00:45:55;38.40;;;19.23;;
8895;SDS011;4484;48.928;10.066;2024-01-11T00:48:22;39.50;;;20.43;;
8895;SDS011;4484;48.928;10.066;2024-01-11T00:50:49;39.03;;;20.67;;
8895;SDS011;4484;48.928;10.066;2024-01-11T00:53:16;36.80;;;21.63;;
8895;SDS011;4484;48.928;10.066;2024-01-11T00:55:43;37.03;;;21.30;;
8895;SDS011;4484;48.928;10.066;2024-01-11T00:58:10;43.80;;;22.87;;
8895;SDS011;4484;48.928;10.066;2024-01-11T01:00:37;43.07;;;21.57;;
8895;SDS011;4484;48.928;10.066;2024-01-11T01:03:04;45.07;;;23.33;;
8895;SDS011;4484;48.928;10.066;2024-01-11T01:05:31;39.00;;;21.13;;
8895;SDS011;4484;48.928;10.066;2024-01-11T01:07:58;42.67;;;21.90;;
8895;SDS011;4484;48.928;10.066;2024-01-11T01:10:25;38.83;;;20.27;;
8895;SDS011;4484;48.928;10.066;2024-01-11T01:12:52;43.97;;;23.47;;
8895;SDS011;4484;48.928;10.066;2024-01-11T01:15:19;43.30;;;22.40;;
8895;SDS011;4484;48.928;10.066;2024-01-11T01:17:46;40.40;;;21.40;;
8895;SDS011;4484;48.928;10.066;2024-01-11T01:20:13;38.33;;;21.27;;
8895;SDS011;4484;48.928;10.066;2024-01-11T01:22:41;45.23;;;22.10;;
8895;SDS011;4484;48.928;10.066;2024-01-11T01:25:07;40.00;;;21.07;;
8895;SDS011;4484;48.928;10.066;2024-01-11T01:27:34;40.57;;;20.90;;
8895;SDS011;4484;48.928;10.066;2024-01-11T01:30:02;41.30;;;21.70;;
8895;SDS011;4484;48.928;10.066;2024-01-11T01:32:29;46.47;;;23.90;;
8895;SDS011;4484;48.928;10.066;2024-01-11T01:34:57;37.87;;;20.47;;
8895;SDS011;4484;48.928;10.066;2024-01-11T01:37:24;41.53;;;23.00;;
8895;SDS011;4484;48.928;10.066;2024-01-11T01:39:50;37.97;;;20.93;;
8895;SDS011;4484;48.928;10.066;2024-01-11T01:42:17;44.40;;;23.80;;
8895;SDS011;4484;48.928;10.066;2024-01-11T01:44:44;40.20;;;21.90;;
8895;SDS011;4484;48.928;10.066;2024-01-11T01:47:11;39.47;;;19.60;;
8895;SDS011;4484;48.928;10.066;2024-01-11T01:49:38;40.60;;;21.50;;
8895;SDS011;4484;48.928;10.066;2024-01-11T01:52:06;44.83;;;21.50;;
8895;SDS011;4484;48.928;10.066;2024-01-11T01:54:34;40.40;;;21.57;;
8895;SDS011;4484;48.928;10.066;2024-01-11T01:57:01;40.30;;;21.30;;
8895;SDS011;4484;48.928;10.066;2024-01-11T01:59:30;36.57;;;20.17;;
8895;SDS011;4484;48.928;10.066;2024-01-11T02:01:58;38.30;;;21.23;;
8895;SDS011;4484;48.928;10.066;2024-01-11T02:04:25;40.67;;;21.10;;
8895;SDS011;4484;48.928;10.066;2024-01-11T02:06:53;37.20;;;19.60;;
8895;SDS011;4484;48.928;10.066;2024-01-11T02:09:21;35.33;;;19.40;;
8895;SDS011;4484;48.928;10.066;2024-01-11T02:11:51;34.20;;;18.87;;
8895;SDS011;4484;48.928;10.066;2024-01-11T02:14:19;33.23;;;19.60;;
8895;SDS011;4484;48.928;10.066;2024-01-11T02:16:46;34.17;;;18.83;;
8895;SDS011;4484;48.928;10.066;2024-01-11T02:19:13;42.83;;;21.93;;
8895;SDS011;4484;48.928;10.066;2024-01-11T02:21:42;41.70;;;21.47;;
8895;SDS011;4484;48.928;10.066;2024-01-11T02:24:09;42.27;;;22.23;;
8895;SDS011;4484;48.928;10.066;2024-01-11T02:26:36;41.20;;;20.20;;
8895;SDS011;4484;48.928;10.066;2024-01-11T02:29:23;39.67;;;21.90;;
8895;SDS011;4484;48.928;10.066;2024-01-11T02:31:50;42.97;;;22.37;;
8895;SDS011;4484;48.928;10.066;2024-01-11T02:34:17;40.77;;;20.63;;
8895;SDS011;4484;48.928;10.066;2024-01-11T02:36:45;35.20;;;18.17;;
8895;SDS011;4484;48.928;10.066;2024-01-11T02:39:12;31.53;;;17.17;;
8895;SDS011;4484;48.928;10.066;2024-01-11T02:41:41;36.53;;;19.53;;
8895;SDS011;4484;48.928;10.066;2024-01-11T02:44:09;40.47;;;20.37;;
8895;SDS011;4484;48.928;10.066;2024-01-11T02:46:36;37.30;;;19.23;;
8895;SDS011;4484;48.928;10.066;2024-01-11T02:49:03;32.07;;;18.43;;
8895;SDS011;4484;48.928;10.066;2024-01-11T02:51:30;33.10;;;19.03;;
8895;SDS011;4484;48.928;10.066;2024-01-11T02:53:57;33.33;;;18.90;;
8895;SDS011;4484;48.928;10.066;2024-01-11T02:56:24;35.43;;;19.33;;
8895;SDS011;4484;48.928;10.066;2024-01-11T02:58:51;29.27;;;17.67;;
8895;SDS011;4484;48.928;10.066;2024-01-11T03:01:18;31.77;;;17.37;;
8895;SDS011;4484;48.928;10.066;2024-01-11T03:03:45;35.67;;;18.90;;
8895;SDS011;4484;48.928;10.066;2024-01-11T03:06:14;36.27;;;19.13;;
8895;SDS011;4484;48.928;10.066;2024-01-11T03:08:41;32.90;;;18.73;;
8895;SDS011;4484;48.928;10.066;2024-01-11T03:11:08;31.77;;;17.97;;
8895;SDS011;4484;48.928;10.066;2024-01-11T03:13:35;29.97;;;16.87;;
8895;SDS011;4484;48.928;10.066;2024-01-11T03:16:01;33.07;;;17.43;;
8895;SDS011;4484;48.928;10.066;2024-01-11T03:18:29;27.63;;;15.70;;
8895;SDS011;4484;48.928;10.066;2024-01-11T03:20:57;30.70;;;16.80;;
8895;SDS011;4484;48.928;10.066;2024-01-11T03:23:24;30.43;;;17.33;;
8895;SDS011;4484;48.928;10.066;2024-01-11T03:25:51;33.80;;;16.77;;
8895;SDS011;4484;48.928;10.066;2024-01-11T03:28:18;30.87;;;16.17;;
8895;SDS011;4484;48.928;10.066;2024-01-11T03:30:45;30.17;;;17.70;;
8895;SDS011;4484;48.928;10.066;2024-01-11T03:33:11;35.07;;;18.77;;
8895;SDS011;4484;48.928;10.066;2024-01-11T03:35:39;36.00;;;18.67;;
8895;SDS011;4484;48.928;10.066;2024-01-11T03:38:06;32.80;;;18.67;;
8895;SDS011;4484;48.928;10.066;2024-01-11T03:40:33;29.23;;;15.90;;
8895;SDS011;4484;48.928;10.066;2024-01-11T03:43:00;30.90;;;16.07;;
8895;SDS011;4484;48.928;10.066;2024-01-11T03:45:27;30.03;;;15.83;;
8895;SDS011;4484;48.928;10.066;2024-01-11T03:47:54;29.30;;;15.67;;
8895;SDS011;4484;48.928;10.066;2024-01-11T03:50:21;30.17;;;16.03;;
8895;SDS011;4484;48.928;10.066;2024-01-11T03:52:48;29.27;;;16.63;;
8895;SDS011;4484;48.928;10.066;2024-01-11T03:55:14;34.17;;;19.20;;
8895;SDS011;4484;48.928;10.066;2024-01-11T03:57:41;31.40;;;19.07;;
8895;SDS011;4484;48.928;10.066;2024-01-11T04:00:10;32.13;;;18.13;;
8895;SDS011;4484;48.928;10.066;2024-01-11T04:02:37;34.23;;;18.23;;
8895;SDS011;4484;48.928;10.066;2024-01-11T04:05:04;32.80;;;18.87;;
8895;SDS011;4484;48.928;10.066;2024-01-11T04:07:32;31.63;;;17.87;;
8895;SDS011;4484;48.928;10.066;2024-01-11T04:09:59;35.70;;;20.60;;
8895;SDS011;4484;48.928;10.066;2024-01-11T04:12:26;43.00;;;22.33;;
8895;SDS011;4484;48.928;10.066;2024-01-11T04:14:53;39.50;;;21.67;;
8895;SDS011;4484;48.928;10.066;2024-01-11T04:17:20;40.23;;;23.20;;
8895;SDS011;4484;48.928;10.066;2024-01-11T04:19:47;37.70;;;21.93;;
8895;SDS011;4484;48.928;10.066;2024-01-11T04:22:13;37.03;;;21.80;;
8895;SDS011;4484;48.928;10.066;2024-01-11T04:24:41;40.60;;;21.87;;
8895;SDS011;4484;48.928;10.066;2024-01-11T04:27:08;39.33;;;21.87;;
8895;SDS011;4484;48.928;10.066;2024-01-11T04:29:35;35.83;;;20.90;;
8895;SDS011;4484;48.928;10.066;2024-01-11T04:32:02;39.07;;;20.70;;
8895;SDS011;4484;48.928;10.066;2024-01-11T04:34:29;40.60;;;23.03;;
8895;SDS011;4484;48.928;10.066;2024-01-11T04:36:57;37.53;;;21.10;;
8895;SDS011;4484;48.928;10.066;2024-01-11T04:39:23;38.13;;;20.47;;
8895;SDS011;4484;48.928;10.066;2024-01-11T04:41:50;38.30;;;20.57;;
8895;SDS011;4484;48.928;10.066;2024-01-11T04:44:17;35.70;;;19.27;;
8895;SDS011;4484;48.928;10.066;2024-01-11T04:46:44;44.10;;;25.67;;
8895;SDS011;4484;48.928;10.066;2024-01-11T04:49:11;37.53;;;20.40;;
8895;SDS011;4484;48.928;10.066;2024-01-11T04:51:38;31.60;;;18.93;;
8895;SDS011;4484;48.928;10.066;2024-01-11T04:54:05;35.97;;;20.83;;
8895;SDS011;4484;48.928;10.066;2024-01-11T04:56:32;34.47;;;18.97;;
8895;SDS011;4484;48.928;10.066;2024-01-11T04:58:59;32.53;;;17.80;;
8895;SDS011;4484;48.928;10.066;2024-01-11T05:01:25;34.73;;;19.30;;
8895;SDS011;4484;48.928;10.066;2024-01-11T05:03:52;36.53;;;20.80;;
8895;SDS011;4484;48.928;10.066;2024-01-11T05:06:21;37.67;;;21.30;;
8895;SDS011;4484;48.928;10.066;2024-01-11T05:08:49;43.47;;;23.60;;
8895;SDS011;4484;48.928;10.066;2024-01-11T05:11:21;39.20;;;22.83;;
8895;SDS011;4484;48.928;10.066;2024-01-11T05:13:51;40.57;;;21.73;;
8895;SDS011;4484;48.928;10.066;2024-01-11T05:18:49;42.73;;;22.93;;
8895;SDS011;4484;48.928;10.066;2024-01-11T05:21:17;42.33;;;22.03;;
8895;SDS011;4484;48.928;10.066;2024-01-11T05:23:45;39.40;;;21.73;;
8895;SDS011;4484;48.928;10.066;2024-01-11T05:26:13;33.83;;;19.63;;
8895;SDS011;4484;48.928;10.066;2024-01-11T05:28:41;34.97;;;19.83;;
8895;SDS011;4484;48.928;10.066;2024-01-11T05:31:11;35.90;;;19.83;;
8895;SDS011;4484;48.928;10.066;2024-01-11T05:33:40;32.40;;;18.10;;
8895;SDS011;4484;48.928;10.066;2024-01-11T05:36:07;30.90;;;19.00;;
8895;SDS011;4484;48.928;10.066;2024-01-11T05:38:34;27.73;;;17.10;;
8895;SDS011;4484;48.928;10.066;2024-01-11T05:41:02;31.90;;;18.47;;
8895;SDS011;4484;48.928;10.066;2024-01-11T05:43:29;33.77;;;17.07;;
8895;SDS011;4484;48.928;10.066;2024-01-11T05:45:55;35.87;;;19.13;;
8895;SDS011;4484;48.928;10.066;2024-01-11T05:48:22;37.03;;;20.53;;
8895;SDS011;4484;48.928;10.066;2024-01-11T05:50:49;35.77;;;20.13;;
8895;SDS011;4484;48.928;10.066;2024-01-11T05:53:16;35.53;;;19.37;;
8895;SDS011;4484;48.928;10.066;2024-01-11T05:55:47;38.50;;;21.43;;
8895;SDS011;4484;48.928;10.066;2024-01-11T05:58:16;37.40;;;21.13;;
8895;SDS011;4484;48.928;10.066;2024-01-11T06:00:42;34.87;;;19.87;;
8895;SDS011;4484;48.928;10.066;2024-01-11T06:03:11;37.87;;;20.83;;
8895;SDS011;4484;48.928;10.066;2024-01-11T06:05:39;36.10;;;20.70;;
8895;SDS011;4484;48.928;10.066;2024-01-11T06:08:06;32.97;;;20.67;;
8895;SDS011;4484;48.928;10.066;2024-01-11T06:10:33;35.80;;;19.73;;
8895;SDS011;4484;48.928;10.066;2024-01-11T06:13:00;35.00;;;20.73;;
8895;SDS011;4484;48.928;10.066;2024-01-11T06:15:27;33.57;;;19.30;;
8895;SDS011;4484;48.928;10.066;2024-01-11T06:17:54;35.90;;;19.67;;
8895;SDS011;4484;48.928;10.066;2024-01-11T06:20:21;33.60;;;18.33;;
8895;SDS011;4484;48.928;10.066;2024-01-11T06:22:48;36.43;;;20.17;;
8895;SDS011;4484;48.928;10.066;2024-01-11T06:25:15;33.30;;;19.27;;
8895;SDS011;4484;48.928;10.066;2024-01-11T06:27:42;32.10;;;18.30;;
8895;SDS011;4484;48.928;10.066;2024-01-11T06:30:12;35.60;;;20.43;;
8895;SDS011;4484;48.928;10.066;2024-01-11T06:32:39;39.20;;;22.10;;
8895;SDS011;4484;48.928;10.066;2024-01-11T06:35:06;38.00;;;22.10;;
8895;SDS011;4484;48.928;10.066;2024-01-11T06:37:34;34.97;;;21.00;;
8895;SDS011;4484;48.928;10.066;2024-01-11T06:40:01;33.07;;;19.97;;
8895;SDS011;4484;48.928;10.066;2024-01-11T06:42:30;34.77;;;20.50;;
8895;SDS011;4484;48.928;10.066;2024-01-11T06:44:57;31.87;;;19.77;;
8895;SDS011;4484;48.928;10.066;2024-01-11T06:47:24;27.87;;;17.00;;
8895;SDS011;4484;48.928;10.066;2024-01-11T06:49:53;28.27;;;16.80;;
8895;SDS011;4484;48.928;10.066;2024-01-11T06:52:20;36.27;;;20.30;;
8895;SDS011;4484;48.928;10.066;2024-01-11T06:54:47;30.57;;;18.37;;
8895;SDS011;4484;48.928;10.066;2024-01-11T06:57:14;41.07;;;21.30;;
8895;SDS011;4484;48.928;10.066;2024-01-11T06:59:40;39.50;;;20.30;;
8895;SDS011;4484;48.928;10.066;2024-01-11T07:02:07;31.87;;;19.60;;
8895;SDS011;4484;48.928;10.066;2024-01-11T07:04:34;32.50;;;18.67;;
8895;SDS011;4484;48.928;10.066;2024-01-11T07:07:01;37.23;;;20.67;;
8895;SDS011;4484;48.928;10.066;2024-01-11T07:09:30;38.90;;;20.93;;
8895;SDS011;4484;48.928;10.066;2024-01-11T07:11:57;38.03;;;19.83;;
8895;SDS011;4484;48.928;10.066;2024-01-11T07:14:24;35.00;;;19.03;;
8895;SDS011;4484;48.928;10.066;2024-01-11T07:16:51;42.07;;;22.47;;
8895;SDS011;4484;48.928;10.066;2024-01-11T07:19:18;39.93;;;20.20;;
8895;SDS011;4484;48.928;10.066;2024-01-11T07:21:45;38.07;;;20.40;;
8895;SDS011;4484;48.928;10.066;2024-01-11T07:24:12;33.97;;;18.73;;
8895;SDS011;4484;48.928;10.066;2024-01-11T07:26:39;36.97;;;18.70;;
8895;SDS011;4484;48.928;10.066;2024-01-11T07:29:06;35.33;;;20.00;;
8895;SDS011;4484;48.928;10.066;2024-01-11T07:31:33;37.70;;;20.30;;
8895;SDS011;4484;48.928;10.066;2024-01-11T07:34:01;47.10;;;23.40;;
8895;SDS011;4484;48.928;10.066;2024-01-11T07:36:28;42.77;;;21.83;;
8895;SDS011;4484;48.928;10.066;2024-01-11T07:38:55;39.93;;;22.47;;
8895;SDS011;4484;48.928;10.066;2024-01-11T07:41:22;40.90;;;21.37;;
8895;SDS011;4484;48.928;10.066;2024-01-11T07:43:49;35.73;;;21.00;;
8895;SDS011;4484;48.928;10.066;2024-01-11T07:46:20;39.33;;;20.83;;
8895;SDS011;4484;48.928;10.066;2024-01-11T07:49:02;43.63;;;22.43;;
8895;SDS011;4484;48.928;10.066;2024-01-11T07:51:30;45.30;;;23.77;;
8895;SDS011;4484;48.928;10.066;2024-01-11T07:53:57;44.13;;;22.70;;
8895;SDS011;4484;48.928;10.066;2024-01-11T07:56:24;41.83;;;22.57;;
8895;SDS011;4484;48.928;10.066;2024-01-11T07:58:51;45.00;;;22.33;;
8895;SDS011;4484;48.928;10.066;2024-01-11T08:01:18;42.33;;;21.20;;
8895;SDS011;4484;48.928;10.066;2024-01-11T08:03:45;40.40;;;23.17;;
8895;SDS011;4484;48.928;10.066;2024-01-11T08:06:13;37.67;;;21.40;;
8895;SDS011;4484;48.928;10.066;2024-01-11T08:08:41;40.17;;;22.00;;
8895;SDS011;4484;48.928;10.066;2024-01-11T08:11:08;43.50;;;23.17;;
8895;SDS011;4484;48.928;10.066;2024-01-11T08:13:35;44.80;;;25.33;;
8895;SDS011;4484;48.928;10.066;2024-01-11T08:16:04;48.03;;;25.20;;
8895;SDS011;4484;48.928;10.066;2024-01-11T08:18:35;48.30;;;24.27;;
8895;SDS011;4484;48.928;10.066;2024-01-11T08:21:02;44.00;;;23.83;;
8895;SDS011;4484;48.928;10.066;2024-01-11T08:23:35;44.53;;;23.43;;
8895;SDS011;4484;48.928;10.066;2024-01-11T08:26:14;41.37;;;23.23;;
8895;SDS011;4484;48.928;10.066;2024-01-11T08:28:42;45.97;;;24.40;;
8895;SDS011;4484;48.928;10.066;2024-01-11T08:31:08;39.87;;;23.43;;
8895;SDS011;4484;48.928;10.066;2024-01-11T08:33:36;44.27;;;23.53;;
8895;SDS011;4484;48.928;10.066;2024-01-11T08:36:04;46.03;;;22.60;;
8895;SDS011;4484;48.928;10.066;2024-01-11T08:38:32;44.37;;;24.03;;
8895;SDS011;4484;48.928;10.066;2024-01-11T08:40:59;44.50;;;22.93;;
8895;SDS011;4484;48.928;10.066;2024-01-11T08:43:27;40.33;;;22.17;;
8895;SDS011;4484;48.928;10.066;2024-01-11T08:45:54;44.53;;;23.07;;
8895;SDS011;4484;48.928;10.066;2024-01-11T08:48:21;45.30;;;24.83;;
8895;SDS011;4484;48.928;10.066;2024-01-11T08:50:48;45.07;;;23.67;;
8895;SDS011;4484;48.928;10.066;2024-01-11T08:53:15;45.37;;;25.13;;
8895;SDS011;4484;48.928;10.066;2024-01-11T08:55:43;44.27;;;24.33;;
8895;SDS011;4484;48.928;10.066;2024-01-11T08:58:12;48.77;;;24.50;;
8895;SDS011;4484;48.928;10.066;2024-01-11T09:00:39;38.33;;;21.47;;
8895;SDS011;4484;48.928;10.066;2024-01-11T09:03:07;40.27;;;22.17;;
8895;SDS011;4484;48.928;10.066;2024-01-11T09:05:34;45.73;;;23.60;;
8895;SDS011;4484;48.928;10.066;2024-01-11T09:08:01;40.87;;;21.73;;
8895;SDS011;4484;48.928;10.066;2024-01-11T09:10:28;44.27;;;22.30;;
8895;SDS011;4484;48.928;10.066;2024-01-11T09:12:54;46.27;;;23.33;;
8895;SDS011;4484;48.928;10.066;2024-01-11T09:15:21;42.13;;;22.63;;
8895;SDS011;4484;48.928;10.066;2024-01-11T09:17:48;46.77;;;23.97;;
8895;SDS011;4484;48.928;10.066;2024-01-11T09:20:16;48.63;;;24.87;;
8895;SDS011;4484;48.928;10.066;2024-01-11T09:22:45;51.13;;;25.07;;
8895;SDS011;4484;48.928;10.066;2024-01-11T09:25:12;47.90;;;24.77;;
8895;SDS011;4484;48.928;10.066;2024-01-11T09:27:39;46.57;;;23.33;;
8895;SDS011;4484;48.928;10.066;2024-01-11T09:30:06;34.93;;;20.83;;
8895;SDS011;4484;48.928;10.066;2024-01-11T09:32:33;41.80;;;22.33;;
8895;SDS011;4484;48.928;10.066;2024-01-11T09:35:01;43.40;;;22.57;;
8895;SDS011;4484;48.928;10.066;2024-01-11T09:37:32;43.93;;;21.87;;
8895;SDS011;4484;48.928;10.066;2024-01-11T09:39:58;41.40;;;22.27;;
8895;SDS011;4484;48.928;10.066;2024-01-11T09:42:27;40.23;;;21.23;;
8895;SDS011;4484;48.928;10.066;2024-01-11T09:44:54;39.70;;;22.77;;
8895;SDS011;4484;48.928;10.066;2024-01-11T09:47:23;45.30;;;22.97;;
8895;SDS011;4484;48.928;10.066;2024-01-11T09:49:51;39.90;;;21.83;;
8895;SDS011;4484;48.928;10.066;2024-01-11T09:52:20;39.00;;;20.47;;
8895;SDS011;4484;48.928;10.066;2024-01-11T09:54:48;35.33;;;19.03;;
8895;SDS011;4484;48.928;10.066;2024-01-11T09:57:16;37.83;;;18.57;;
8895;SDS011;4484;48.928;10.066;2024-01-11T09:59:50;34.40;;;20.37;;
8895;SDS011;4484;48.928;10.066;2024-01-11T10:02:20;40.47;;;21.37;;
8895;SDS011;4484;48.928;10.066;2024-01-11T10:04:55;35.90;;;18.03;;
8895;SDS011;4484;48.928;10.066;2024-01-11T10:07:22;31.70;;;17.13;;
8895;SDS011;4484;48.928;10.066;2024-01-11T10:09:51;33.23;;;19.23;;
8895;SDS011;4484;48.928;10.066;2024-01-11T10:12:22;30.73;;;18.30;;
8895;SDS011;4484;48.928;10.066;2024-01-11T10:14:51;31.67;;;18.27;;
8895;SDS011;4484;48.928;10.066;2024-01-11T10:17:18;30.40;;;16.93;;
8895;SDS011;4484;48.928;10.066;2024-01-11T10:19:52;30.47;;;16.93;;
8895;SDS011;4484;48.928;10.066;2024-01-11T10:22:21;29.67;;;17.50;;
8895;SDS011;4484;48.928;10.066;2024-01-11T10:25:04;30.83;;;18.10;;
8895;SDS011;4484;48.928;10.066;2024-01-11T10:27:39;32.50;;;18.23;;
8895;SDS011;4484;48.928;10.066;2024-01-11T10:30:11;31.53;;;18.80;;
8895;SDS011;4484;48.928;10.066;2024-01-11T10:32:39;29.87;;;18.07;;
8895;SDS011;4484;48.928;10.066;2024-01-11T10:35:06;28.23;;;18.13;;
8895;SDS011;4484;48.928;10.066;2024-01-11T10:37:34;32.07;;;18.40;;
8895;SDS011;4484;48.928;10.066;2024-01-11T10:40:02;29.37;;;17.73;;
8895;SDS011;4484;48.928;10.066;2024-01-11T10:42:36;26.57;;;17.73;;
8895;SDS011;4484;48.928;10.066;2024-01-11T10:45:14;29.90;;;17.47;;
8895;SDS011;4484;48.928;10.066;2024-01-11T10:47:47;30.97;;;18.13;;
8895;SDS011;4484;48.928;10.066;2024-01-11T10:50:17;28.53;;;17.70;;
8895;SDS011;4484;48.928;10.066;2024-01-11T10:55:30;28.57;;;19.20;;
8895;SDS011;4484;48.928;10.066;2024-01-11T10:58:00;31.23;;;19.20;;
8895;SDS011;4484;48.928;10.066;2024-01-11T11:00:28;27.63;;;17.37;;
8895;SDS011;4484;48.928;10.066;2024-01-11T11:02:55;27.10;;;17.93;;
8895;SDS011;4484;48.928;10.066;2024-01-11T11:05:24;26.27;;;18.20;;
8895;SDS011;4484;48.928;10.066;2024-01-11T11:07:53;28.90;;;18.17;;
8895;SDS011;4484;48.928;10.066;2024-01-11T11:10:21;24.20;;;17.27;;
8895;SDS011;4484;48.928;10.066;2024-01-11T11:12:48;28.73;;;19.50;;
8895;SDS011;4484;48.928;10.066;2024-01-11T11:15:15;31.43;;;20.10;;
8895;SDS011;4484;48.928;10.066;2024-01-11T11:17:42;27.33;;;19.57;;
8895;SDS011;4484;48.928;10.066;2024-01-11T11:20:10;29.37;;;19.77;;
8895;SDS011;4484;48.928;10.066;2024-01-11T11:22:40;27.73;;;18.23;;
8895;SDS011;4484;48.928;10.066;2024-01-11T11:25:10;27.00;;;19.17;;
8895;SDS011;4484;48.928;10.066;2024-01-11T11:27:38;26.47;;;17.27;;
8895;SDS011;4484;48.928;10.066;2024-01-11T11:30:05;28.00;;;18.93;;
8895;SDS011;4484;48.928;10.066;2024-01-11T11:32:39;28.20;;;18.70;;
8895;SDS011;4484;48.928;10.066;2024-01-11T11:35:10;28.07;;;18.47;;
8895;SDS011;4484;48.928;10.066;2024-01-11T11:37:37;30.57;;;18.20;;
8895;SDS011;4484;48.928;10.066;2024-01-11T11:40:05;29.67;;;18.77;;
8895;SDS011;4484;48.928;10.066;2024-01-11T11:42:34;26.07;;;18.27;;
8895;SDS011;4484;48.928;10.066;2024-01-11T11:45:01;30.63;;;18.40;;
8895;SDS011;4484;48.928;10.066;2024-01-11T11:47:35;26.90;;;17.33;;
8895;SDS011;4484;48.928;10.066;2024-01-11T11:52:34;25.87;;;18.27;;
8895;SDS011;4484;48.928;10.066;2024-01-11T11:55:03;27.33;;;18.37;;
8895;SDS011;4484;48.928;10.066;2024-01-11T11:57:31;27.07;;;19.10;;
8895;SDS011;4484;48.928;10.066;2024-01-11T11:59:59;28.43;;;19.40;;
8895;SDS011;4484;48.928;10.066;2024-01-11T12:02:26;31.00;;;19.93;;
8895;SDS011;4484;48.928;10.066;2024-01-11T12:04:53;30.67;;;19.40;;
8895;SDS011;4484;48.928;10.066;2024-01-11T12:07:21;29.60;;;20.23;;
8895;SDS011;4484;48.928;10.066;2024-01-11T12:09:49;28.00;;;18.27;;
8895;SDS011;4484;48.928;10.066;2024-01-11T12:12:17;29.40;;;19.27;;
8895;SDS011;4484;48.928;10.066;2024-01-11T12:14:47;23.73;;;17.33;;
8895;SDS011;4484;48.928;10.066;2024-01-11T12:17:16;26.17;;;18.10;;
8895;SDS011;4484;48.928;10.066;2024-01-11T12:19:42;26.00;;;18.50;;
8895;SDS011;4484;48.928;10.066;2024-01-11T12:22:09;27.23;;;18.70;;
8895;SDS011;4484;48.928;10.066;2024-01-11T12:24:37;29.37;;;19.40;;
8895;SDS011;4484;48.928;10.066;2024-01-11T12:27:04;29.13;;;19.17;;
8895;SDS011;4484;48.928;10.066;2024-01-11T12:29:31;31.00;;;20.33;;
8895;SDS011;4484;48.928;10.066;2024-01-11T12:32:09;28.83;;;19.40;;
8895;SDS011;4484;48.928;10.066;2024-01-11T12:34:38;31.83;;;19.40;;
8895;SDS011;4484;48.928;10.066;2024-01-11T12:37:06;28.57;;;18.83;;
8895;SDS011;4484;48.928;10.066;2024-01-11T12:39:33;28.33;;;19.57;;
8895;SDS011;4484;48.928;10.066;2024-01-11T12:42:04;28.20;;;18.90;;
8895;SDS011;4484;48.928;10.066;2024-01-11T12:44:31;27.97;;;18.83;;
8895;SDS011;4484;48.928;10.066;2024-01-11T12:46:59;28.67;;;19.40;;
8895;SDS011;4484;48.928;10.066;2024-01-11T12:49:26;30.07;;;19.03;;
8895;SDS011;4484;48.928;10.066;2024-01-11T12:51:53;24.17;;;17.67;;
8895;SDS011;4484;48.928;10.066;2024-01-11T12:54:20;29.23;;;19.20;;
8895;SDS011;4484;48.928;10.066;2024-01-11T12:56:47;28.33;;;18.97;;
8895;SDS011;4484;48.928;10.066;2024-01-11T12:59:14;27.70;;;17.67;;
8895;SDS011;4484;48.928;10.066;2024-01-11T13:01:42;29.13;;;18.53;;
8895;SDS011;4484;48.928;10.066;2024-01-11T13:04:09;28.13;;;18.17;;
8895;SDS011;4484;48.928;10.066;2024-01-11T13:06:37;27.40;;;18.63;;
8895;SDS011;4484;48.928;10.066;2024-01-11T13:09:04;27.67;;;18.83;;
8895;SDS011;4484;48.928;10.066;2024-01-11T13:11:34;26.93;;;17.97;;
8895;SDS011;4484;48.928;10.066;2024-01-11T13:14:01;24.97;;;18.20;;
8895;SDS011;4484;48.928;10.066;2024-01-11T13:16:32;29.13;;;18.80;;
8895;SDS011;4484;48.928;10.066;2024-01-11T13:18:59;29.03;;;18.67;;
8895;SDS011;4484;48.928;10.066;2024-01-11T13:21:27;27.40;;;18.27;;
8895;SDS011;4484;48.928;10.066;2024-01-11T13:23:54;28.23;;;18.43;;
8895;SDS011;4484;48.928;10.066;2024-01-11T13:26:21;31.13;;;19.37;;
8895;SDS011;4484;48.928;10.066;2024-01-11T13:28:49;27.40;;;17.70;;
8895;SDS011;4484;48.928;10.066;2024-01-11T13:31:18;27.23;;;18.33;;
8895;SDS011;4484;48.928;10.066;2024-01-11T13:33:46;29.70;;;18.03;;
8895;SDS011;4484;48.928;10.066;2024-01-11T13:36:13;25.80;;;17.30;;
8895;SDS011;4484;48.928;10.066;2024-01-11T13:38:40;25.50;;;17.90;;
8895;SDS011;4484;48.928;10.066;2024-01-11T13:41:07;27.13;;;18.27;;
8895;SDS011;4484;48.928;10.066;2024-01-11T13:43:35;30.13;;;19.50;;
8895;SDS011;4484;48.928;10.066;2024-01-11T13:46:02;26.27;;;17.20;;
8895;SDS011;4484;48.928;10.066;2024-01-11T13:48:32;28.40;;;18.47;;
8895;SDS011;4484;48.928;10.066;2024-01-11T13:50:59;26.20;;;18.30;;
8895;SDS011;4484;48.928;10.066;2024-01-11T13:53:26;27.87;;;18.50;;
8895;SDS011;4484;48.928;10.066;2024-01-11T13:55:53;27.27;;;18.43;;
8895;SDS011;4484;48.928;10.066;2024-01-11T13:58:21;26.03;;;17.53;;
8895;SDS011;4484;48.928;10.066;2024-01-11T14:00:49;24.20;;;17.50;;
8895;SDS011;4484;48.928;10.066;2024-01-11T14:03:16;26.83;;;16.93;;
8895;SDS011;4484;48.928;10.066;2024-01-11T14:05:43;25.10;;;17.90;;
8895;SDS011;4484;48.928;10.066;2024-01-11T14:08:10;29.93;;;19.53;;
8895;SDS011;4484;48.928;10.066;2024-01-11T14:10:37;27.83;;;18.07;;
8895;SDS011;4484;48.928;10.066;2024-01-11T14:13:03;26.83;;;17.47;;
8895;SDS011;4484;48.928;10.066;2024-01-11T14:15:30;24.73;;;16.87;;
8895;SDS011;4484;48.928;10.066;2024-01-11T14:17:58;24.00;;;16.57;;
8895;SDS011;4484;48.928;10.066;2024-01-11T14:20:25;26.40;;;17.10;;
8895;SDS011;4484;48.928;10.066;2024-01-11T14:22:52;26.53;;;16.43;;
8895;SDS011;4484;48.928;10.066;2024-01-11T14:25:20;28.00;;;16.30;;
8895;SDS011;4484;48.928;10.066;2024-01-11T14:27:48;23.63;;;15.90;;
8895;SDS011;4484;48.928;10.066;2024-01-11T14:30:15;26.90;;;16.83;;
8895;SDS011;4484;48.928;10.066;2024-01-11T14:32:42;26.90;;;17.23;;
8895;SDS011;4484;48.928;10.066;2024-01-11T14:35:09;27.67;;;16.90;;
8895;SDS011;4484;48.928;10.066;2024-01-11T14:37:37;24.40;;;16.57;;
8895;SDS011;4484;48.928;10.066;2024-01-11T14:40:06;24.97;;;16.20;;
8895;SDS011;4484;48.928;10.066;2024-01-11T14:42:37;27.00;;;16.17;;
8895;SDS011;4484;48.928;10.066;2024-01-11T14:45:04;25.73;;;16.57;;